sensor_id;sensor_type;location;lat;lon;timestamp;P1;durP1;ratioP1;P2;durP2;ratioP2
33206;SDS011;19565;46.602;11.534;2023-01-28T00:00:11;18.37;;;17.47;;
33206;SDS011;19565;46.602;11.534;2023-01-28T00:02:39;19.13;;;17.93;;
33206;SDS011;19565;46.602;11.534;2023-01-28T00:05:09;19.30;;;18.30;;
33206;SDS011;19565;46.602;11.534;2023-01-28T00:07:38;18.30;;;17.40;;
33206;SDS011;19565;46.602;11.534;2023-01-28T00:10:06;19.00;;;18.10;;
33206;SDS011;19565;46.602;11.534;2023-01-28T00:12:35;18.37;;;17.47;;
33206;SDS011;19565;46.602;11.534;2023-01-28T00:15:03;20.27;;;19.07;;
33206;SDS011;19565;46.602;11.534;2023-01-28T00:17:32;18.70;;;17.80;;
33206;SDS011;19565;46.602;11.534;2023-01-28T00:20:02;18.60;;;17.70;;
33206;SDS011;19565;46.602;11.534;2023-01-28T00:22:32;18.87;;;17.97;;
33206;SDS011;19565;46.602;11.534;2023-01-28T00:25:01;19.63;;;18.67;;
33206;SDS011;19565;46.602;11.534;2023-01-28T00:27:29;19.13;;;18.23;;
33206;SDS011;19565;46.602;11.534;2023-01-28T00:29:57;19.10;;;18.20;;
33206;SDS011;19565;46.602;11.534;2023-01-28T00:32:25;19.03;;;18.13;;
33206;SDS011;19565;46.602;11.534;2023-01-28T00:34:53;19.60;;;18.47;;
33206;SDS011;19565;46.602;11.534;2023-01-28T00:37:21;19.10;;;18.20;;
33206;SDS011;19565;46.602;11.534;2023-01-28T00:39:51;19.17;;;18.17;;
33206;SDS011;19565;46.602;11.534;2023-01-28T00:42:19;19.63;;;18.37;;
33206;SDS011;19565;46.602;11.534;2023-01-28T00:44:47;18.40;;;17.50;;
33206;SDS011;19565;46.602;11.534;2023-01-28T00:47:15;18.20;;;17.30;;
33206;SDS011;19565;46.602;11.534;2023-01-28T00:49:43;18.33;;;17.43;;
33206;SDS011;19565;46.602;11.534;2023-01-28T00:52:11;31.37;;;18.33;;
33206;SDS011;19565;46.602;11.534;2023-01-28T00:54:39;40.27;;;38.47;;
33206;SDS011;19565;46.602;11.534;2023-01-28T00:57:09;40.37;;;38.67;;
33206;SDS011;19565;46.602;11.534;2023-01-28T00:59:37;39.90;;;38.20;;
33206;SDS011;19565;46.602;11.534;2023-01-28T01:02:05;40.47;;;38.67;;
33206;SDS011;19565;46.602;11.534;2023-01-28T01:04:38;41.23;;;39.43;;
33206;SDS011;19565;46.602;11.534;2023-01-28T01:07:21;41.90;;;40.10;;
33206;SDS011;19565;46.602;11.534;2023-01-28T01:09:57;42.90;;;41.00;;
33206;SDS011;19565;46.602;11.534;2023-01-28T01:12:27;40.67;;;38.87;;
33206;SDS011;19565;46.602;11.534;2023-01-28T01:14:55;40.93;;;39.13;;
33206;SDS011;19565;46.602;11.534;2023-01-28T01:17:23;40.23;;;38.53;;
33206;SDS011;19565;46.602;11.534;2023-01-28T01:19:52;42.10;;;40.30;;
33206;SDS011;19565;46.602;11.534;2023-01-28T01:22:19;43.40;;;41.50;;
33206;SDS011;19565;46.602;11.534;2023-01-28T01:24:48;18.93;;;17.80;;
33206;SDS011;19565;46.602;11.534;2023-01-28T01:27:16;18.50;;;17.60;;
33206;SDS011;19565;46.602;11.534;2023-01-28T01:29:45;19.00;;;18.10;;
33206;SDS011;19565;46.602;11.534;2023-01-28T01:32:13;18.87;;;17.97;;
33206;SDS011;19565;46.602;11.534;2023-01-28T01:34:44;18.67;;;17.77;;
33206;SDS011;19565;46.602;11.534;2023-01-28T01:37:12;20.90;;;19.90;;
33206;SDS011;19565;46.602;11.534;2023-01-28T01:39:40;18.67;;;17.77;;
33206;SDS011;19565;46.602;11.534;2023-01-28T01:42:09;19.60;;;18.60;;
33206;SDS011;19565;46.602;11.534;2023-01-28T01:47:35;18.70;;;17.80;;
33206;SDS011;19565;46.602;11.534;2023-01-28T01:50:11;18.40;;;17.50;;
33206;SDS011;19565;46.602;11.534;2023-01-28T01:52:44;18.17;;;17.27;;
33206;SDS011;19565;46.602;11.534;2023-01-28T01:55:18;18.63;;;17.53;;
33206;SDS011;19565;46.602;11.534;2023-01-28T01:57:49;18.13;;;17.23;;
33206;SDS011;19565;46.602;11.534;2023-01-28T02:00:21;18.40;;;17.50;;
33206;SDS011;19565;46.602;11.534;2023-01-28T02:02:49;19.40;;;18.40;;
33206;SDS011;19565;46.602;11.534;2023-01-28T02:05:19;19.43;;;18.53;;
33206;SDS011;19565;46.602;11.534;2023-01-28T02:07:49;18.60;;;17.70;;
33206;SDS011;19565;46.602;11.534;2023-01-28T02:10:20;19.00;;;18.10;;
33206;SDS011;19565;46.602;11.534;2023-01-28T02:12:51;19.00;;;18.10;;
33206;SDS011;19565;46.602;11.534;2023-01-28T02:15:24;19.33;;;18.43;;
33206;SDS011;19565;46.602;11.534;2023-01-28T02:17:55;19.30;;;18.40;;
33206;SDS011;19565;46.602;11.534;2023-01-28T02:20:24;18.57;;;17.67;;
33206;SDS011;19565;46.602;11.534;2023-01-28T02:29:03;18.30;;;17.40;;
33206;SDS011;19565;46.602;11.534;2023-01-28T02:31:37;41.67;;;39.87;;
33206;SDS011;19565;46.602;11.534;2023-01-28T02:34:13;40.60;;;38.80;;
33206;SDS011;19565;46.602;11.534;2023-01-28T02:36:48;42.07;;;40.27;;
33206;SDS011;19565;46.602;11.534;2023-01-28T02:39:21;40.87;;;39.07;;
33206;SDS011;19565;46.602;11.534;2023-01-28T02:41:55;18.40;;;17.50;;
33206;SDS011;19565;46.602;11.534;2023-01-28T02:44:27;40.17;;;38.47;;
33206;SDS011;19565;46.602;11.534;2023-01-28T02:46:55;39.77;;;38.07;;
33206;SDS011;19565;46.602;11.534;2023-01-28T02:49:42;42.53;;;40.63;;
33206;SDS011;19565;46.602;11.534;2023-01-28T02:55:17;41.90;;;39.83;;
33206;SDS011;19565;46.602;11.534;2023-01-28T02:57:57;43.07;;;41.03;;
33206;SDS011;19565;46.602;11.534;2023-01-28T03:00:35;18.73;;;17.70;;
33206;SDS011;19565;46.602;11.534;2023-01-28T03:03:14;39.73;;;38.03;;
33206;SDS011;19565;46.602;11.534;2023-01-28T03:05:46;41.00;;;39.20;;
33206;SDS011;19565;46.602;11.534;2023-01-28T03:08:31;39.07;;;37.37;;
33206;SDS011;19565;46.602;11.534;2023-01-28T03:11:19;41.13;;;39.33;;
33206;SDS011;19565;46.602;11.534;2023-01-28T03:14:06;42.80;;;40.90;;
33206;SDS011;19565;46.602;11.534;2023-01-28T03:16:54;42.03;;;40.23;;
33206;SDS011;19565;46.602;11.534;2023-01-28T03:19:43;41.07;;;39.27;;
33206;SDS011;19565;46.602;11.534;2023-01-28T03:22:30;42.70;;;40.90;;
33206;SDS011;19565;46.602;11.534;2023-01-28T03:25:19;42.20;;;40.40;;
33206;SDS011;19565;46.602;11.534;2023-01-28T03:28:07;40.73;;;38.93;;
33206;SDS011;19565;46.602;11.534;2023-01-28T03:31:01;40.53;;;38.80;;
33206;SDS011;19565;46.602;11.534;2023-01-28T03:33:51;40.20;;;38.50;;
33206;SDS011;19565;46.602;11.534;2023-01-28T03:36:37;39.87;;;38.17;;
33206;SDS011;19565;46.602;11.534;2023-01-28T03:39:20;40.23;;;38.50;;
33206;SDS011;19565;46.602;11.534;2023-01-28T03:41:59;40.73;;;39.00;;
33206;SDS011;19565;46.602;11.534;2023-01-28T03:44:29;40.53;;;38.73;;
33206;SDS011;19565;46.602;11.534;2023-01-28T03:47:17;38.77;;;37.07;;
33206;SDS011;19565;46.602;11.534;2023-01-28T03:49:47;40.47;;;38.73;;
33206;SDS011;19565;46.602;11.534;2023-01-28T03:52:17;40.73;;;38.93;;
33206;SDS011;19565;46.602;11.534;2023-01-28T03:54:47;39.93;;;38.23;;
33206;SDS011;19565;46.602;11.534;2023-01-28T03:57:18;40.57;;;38.87;;
33206;SDS011;19565;46.602;11.534;2023-01-28T03:59:47;40.00;;;38.30;;
33206;SDS011;19565;46.602;11.534;2023-01-28T04:02:16;40.87;;;39.17;;
33206;SDS011;19565;46.602;11.534;2023-01-28T04:04:44;40.37;;;38.67;;
33206;SDS011;19565;46.602;11.534;2023-01-28T04:07:15;39.43;;;37.73;;
33206;SDS011;19565;46.602;11.534;2023-01-28T04:09:43;40.43;;;38.73;;
33206;SDS011;19565;46.602;11.534;2023-01-28T04:12:11;39.97;;;38.27;;
33206;SDS011;19565;46.602;11.534;2023-01-28T04:14:40;38.13;;;36.53;;
33206;SDS011;19565;46.602;11.534;2023-01-28T04:17:08;42.50;;;40.60;;
33206;SDS011;19565;46.602;11.534;2023-01-28T04:19:36;42.27;;;40.27;;
33206;SDS011;19565;46.602;11.534;2023-01-28T04:22:09;41.10;;;39.30;;
33206;SDS011;19565;46.602;11.534;2023-01-28T04:24:37;42.10;;;40.30;;
33206;SDS011;19565;46.602;11.534;2023-01-28T04:27:08;41.37;;;39.57;;
33206;SDS011;19565;46.602;11.534;2023-01-28T04:29:36;41.40;;;39.60;;
33206;SDS011;19565;46.602;11.534;2023-01-28T04:32:04;41.80;;;40.00;;
33206;SDS011;19565;46.602;11.534;2023-01-28T04:34:32;41.27;;;39.47;;
33206;SDS011;19565;46.602;11.534;2023-01-28T04:37:00;40.83;;;39.03;;
33206;SDS011;19565;46.602;11.534;2023-01-28T04:39:29;41.23;;;39.27;;
33206;SDS011;19565;46.602;11.534;2023-01-28T04:41:57;41.97;;;40.17;;
33206;SDS011;19565;46.602;11.534;2023-01-28T04:44:25;42.80;;;41.00;;
33206;SDS011;19565;46.602;11.534;2023-01-28T04:46:53;40.33;;;38.57;;
33206;SDS011;19565;46.602;11.534;2023-01-28T04:49:21;40.90;;;39.10;;
33206;SDS011;19565;46.602;11.534;2023-01-28T04:51:51;39.03;;;37.33;;
33206;SDS011;19565;46.602;11.534;2023-01-28T04:54:19;40.00;;;38.30;;
33206;SDS011;19565;46.602;11.534;2023-01-28T04:56:49;41.73;;;39.93;;
33206;SDS011;19565;46.602;11.534;2023-01-28T04:59:17;41.07;;;39.27;;
33206;SDS011;19565;46.602;11.534;2023-01-28T05:01:45;41.60;;;39.80;;
33206;SDS011;19565;46.602;11.534;2023-01-28T05:04:14;41.33;;;39.53;;
33206;SDS011;19565;46.602;11.534;2023-01-28T05:06:42;39.93;;;38.23;;
33206;SDS011;19565;46.602;11.534;2023-01-28T05:09:10;40.03;;;38.33;;
33206;SDS011;19565;46.602;11.534;2023-01-28T05:11:39;40.87;;;39.07;;
33206;SDS011;19565;46.602;11.534;2023-01-28T05:14:08;40.53;;;38.60;;
33206;SDS011;19565;46.602;11.534;2023-01-28T05:16:36;40.93;;;39.13;;
33206;SDS011;19565;46.602;11.534;2023-01-28T05:19:04;17.40;;;16.60;;
33206;SDS011;19565;46.602;11.534;2023-01-28T05:21:32;18.37;;;17.37;;
33206;SDS011;19565;46.602;11.534;2023-01-28T05:24:00;18.23;;;17.33;;
33206;SDS011;19565;46.602;11.534;2023-01-28T05:26:28;18.40;;;17.50;;
33206;SDS011;19565;46.602;11.534;2023-01-28T05:28:57;18.23;;;17.27;;
33206;SDS011;19565;46.602;11.534;2023-01-28T05:31:26;17.07;;;16.23;;
33206;SDS011;19565;46.602;11.534;2023-01-28T05:33:54;18.00;;;17.10;;
33206;SDS011;19565;46.602;11.534;2023-01-28T05:36:22;18.80;;;17.90;;
33206;SDS011;19565;46.602;11.534;2023-01-28T05:38:50;18.43;;;17.53;;
33206;SDS011;19565;46.602;11.534;2023-01-28T05:41:18;18.33;;;17.43;;
33206;SDS011;19565;46.602;11.534;2023-01-28T05:43:47;17.53;;;16.63;;
33206;SDS011;19565;46.602;11.534;2023-01-28T05:46:14;17.97;;;17.07;;
33206;SDS011;19565;46.602;11.534;2023-01-28T05:48:44;18.47;;;17.57;;
33206;SDS011;19565;46.602;11.534;2023-01-28T05:51:12;17.13;;;16.33;;
33206;SDS011;19565;46.602;11.534;2023-01-28T05:53:40;17.90;;;17.00;;
33206;SDS011;19565;46.602;11.534;2023-01-28T05:56:08;17.60;;;16.70;;
33206;SDS011;19565;46.602;11.534;2023-01-28T05:58:36;17.60;;;16.70;;
33206;SDS011;19565;46.602;11.534;2023-01-28T06:01:04;41.63;;;39.83;;
33206;SDS011;19565;46.602;11.534;2023-01-28T06:03:32;39.77;;;38.07;;
33206;SDS011;19565;46.602;11.534;2023-01-28T06:06:02;40.70;;;38.83;;
33206;SDS011;19565;46.602;11.534;2023-01-28T06:08:30;41.10;;;39.30;;
33206;SDS011;19565;46.602;11.534;2023-01-28T06:10:58;40.60;;;38.80;;
33206;SDS011;19565;46.602;11.534;2023-01-28T06:13:26;40.73;;;38.93;;
33206;SDS011;19565;46.602;11.534;2023-01-28T06:15:54;43.00;;;41.10;;
33206;SDS011;19565;46.602;11.534;2023-01-28T06:18:22;40.50;;;38.70;;
33206;SDS011;19565;46.602;11.534;2023-01-28T06:20:50;41.83;;;40.03;;
33206;SDS011;19565;46.602;11.534;2023-01-28T06:23:19;44.17;;;42.27;;
33206;SDS011;19565;46.602;11.534;2023-01-28T06:25:52;43.33;;;41.43;;
33206;SDS011;19565;46.602;11.534;2023-01-28T06:28:21;42.10;;;40.13;;
33206;SDS011;19565;46.602;11.534;2023-01-28T06:30:49;40.97;;;39.17;;
33206;SDS011;19565;46.602;11.534;2023-01-28T06:33:18;40.70;;;38.90;;
33206;SDS011;19565;46.602;11.534;2023-01-28T06:35:46;40.57;;;38.87;;
33206;SDS011;19565;46.602;11.534;2023-01-28T06:38:14;40.10;;;38.40;;
33206;SDS011;19565;46.602;11.534;2023-01-28T06:40:45;40.83;;;39.03;;
33206;SDS011;19565;46.602;11.534;2023-01-28T06:43:18;39.53;;;37.67;;
33206;SDS011;19565;46.602;11.534;2023-01-28T06:45:45;41.40;;;39.60;;
33206;SDS011;19565;46.602;11.534;2023-01-28T06:48:14;38.80;;;37.13;;
33206;SDS011;19565;46.602;11.534;2023-01-28T06:50:42;37.93;;;36.23;;
33206;SDS011;19565;46.602;11.534;2023-01-28T06:53:09;38.57;;;36.93;;
33206;SDS011;19565;46.602;11.534;2023-01-28T06:55:38;36.83;;;35.23;;
33206;SDS011;19565;46.602;11.534;2023-01-28T06:58:07;35.20;;;33.63;;
33206;SDS011;19565;46.602;11.534;2023-01-28T07:00:35;33.93;;;32.43;;
33206;SDS011;19565;46.602;11.534;2023-01-28T07:03:04;36.47;;;34.87;;
33206;SDS011;19565;46.602;11.534;2023-01-28T07:05:32;34.60;;;33.10;;
33206;SDS011;19565;46.602;11.534;2023-01-28T07:08:00;35.43;;;33.93;;
33206;SDS011;19565;46.602;11.534;2023-01-28T07:10:28;34.77;;;33.27;;
33206;SDS011;19565;46.602;11.534;2023-01-28T07:12:56;35.80;;;34.30;;
33206;SDS011;19565;46.602;11.534;2023-01-28T07:15:26;34.87;;;33.37;;
33206;SDS011;19565;46.602;11.534;2023-01-28T07:17:54;34.50;;;33.00;;
33206;SDS011;19565;46.602;11.534;2023-01-28T07:20:25;37.83;;;36.03;;
33206;SDS011;19565;46.602;11.534;2023-01-28T07:22:53;37.43;;;35.83;;
33206;SDS011;19565;46.602;11.534;2023-01-28T07:25:21;39.73;;;38.03;;
33206;SDS011;19565;46.602;11.534;2023-01-28T07:27:49;38.90;;;37.20;;
33206;SDS011;19565;46.602;11.534;2023-01-28T07:30:19;39.83;;;38.13;;
33206;SDS011;19565;46.602;11.534;2023-01-28T07:32:54;27.30;;;26.07;;
33206;SDS011;19565;46.602;11.534;2023-01-28T07:35:23;39.00;;;37.30;;
33206;SDS011;19565;46.602;11.534;2023-01-28T07:37:52;40.47;;;38.77;;
33206;SDS011;19565;46.602;11.534;2023-01-28T07:40:21;39.77;;;38.07;;
33206;SDS011;19565;46.602;11.534;2023-01-28T07:42:50;39.90;;;38.20;;
33206;SDS011;19565;46.602;11.534;2023-01-28T07:45:20;39.50;;;37.80;;
33206;SDS011;19565;46.602;11.534;2023-01-28T07:47:54;40.73;;;38.93;;
33206;SDS011;19565;46.602;11.534;2023-01-28T07:50:23;18.50;;;17.60;;
33206;SDS011;19565;46.602;11.534;2023-01-28T07:52:51;18.83;;;17.90;;
33206;SDS011;19565;46.602;11.534;2023-01-28T07:55:20;19.77;;;18.77;;
33206;SDS011;19565;46.602;11.534;2023-01-28T07:57:49;19.20;;;18.30;;
33206;SDS011;19565;46.602;11.534;2023-01-28T08:00:19;39.53;;;37.83;;
33206;SDS011;19565;46.602;11.534;2023-01-28T08:02:48;42.50;;;39.53;;
33206;SDS011;19565;46.602;11.534;2023-01-28T08:05:18;41.57;;;39.60;;
33206;SDS011;19565;46.602;11.534;2023-01-28T08:07:47;39.77;;;38.07;;
33206;SDS011;19565;46.602;11.534;2023-01-28T08:10:16;42.30;;;40.50;;
33206;SDS011;19565;46.602;11.534;2023-01-28T08:12:52;38.63;;;36.93;;
33206;SDS011;19565;46.602;11.534;2023-01-28T08:15:21;38.80;;;37.10;;
33206;SDS011;19565;46.602;11.534;2023-01-28T08:17:49;38.97;;;37.27;;
33206;SDS011;19565;46.602;11.534;2023-01-28T08:20:21;37.83;;;36.23;;
33206;SDS011;19565;46.602;11.534;2023-01-28T08:22:50;38.60;;;36.90;;
33206;SDS011;19565;46.602;11.534;2023-01-28T08:25:18;39.27;;;37.57;;
33206;SDS011;19565;46.602;11.534;2023-01-28T08:27:46;39.40;;;37.70;;
33206;SDS011;19565;46.602;11.534;2023-01-28T08:30:14;39.07;;;37.37;;
33206;SDS011;19565;46.602;11.534;2023-01-28T08:32:43;40.33;;;38.53;;
33206;SDS011;19565;46.602;11.534;2023-01-28T08:35:11;40.47;;;38.77;;
33206;SDS011;19565;46.602;11.534;2023-01-28T08:37:40;40.37;;;38.67;;
33206;SDS011;19565;46.602;11.534;2023-01-28T08:40:09;40.57;;;38.87;;
33206;SDS011;19565;46.602;11.534;2023-01-28T08:42:37;40.30;;;38.60;;
33206;SDS011;19565;46.602;11.534;2023-01-28T08:45:06;39.80;;;38.00;;
33206;SDS011;19565;46.602;11.534;2023-01-28T08:47:35;40.53;;;38.73;;
33206;SDS011;19565;46.602;11.534;2023-01-28T08:50:03;39.53;;;37.83;;
33206;SDS011;19565;46.602;11.534;2023-01-28T08:52:32;39.10;;;37.40;;
33206;SDS011;19565;46.602;11.534;2023-01-28T08:55:01;41.33;;;39.53;;
33206;SDS011;19565;46.602;11.534;2023-01-28T08:57:29;43.63;;;41.53;;
33206;SDS011;19565;46.602;11.534;2023-01-28T08:59:57;18.33;;;17.23;;
33206;SDS011;19565;46.602;11.534;2023-01-28T09:02:25;18.57;;;17.43;;
33206;SDS011;19565;46.602;11.534;2023-01-28T09:04:57;18.50;;;17.60;;
33206;SDS011;19565;46.602;11.534;2023-01-28T09:07:26;21.03;;;20.03;;
33206;SDS011;19565;46.602;11.534;2023-01-28T09:09:54;19.20;;;18.30;;
33206;SDS011;19565;46.602;11.534;2023-01-28T09:12:23;19.73;;;18.80;;
33206;SDS011;19565;46.602;11.534;2023-01-28T09:14:52;23.00;;;21.90;;
33206;SDS011;19565;46.602;11.534;2023-01-28T09:17:20;22.80;;;21.80;;
33206;SDS011;19565;46.602;11.534;2023-01-28T09:19:48;23.83;;;22.73;;
33206;SDS011;19565;46.602;11.534;2023-01-28T09:22:17;21.07;;;20.07;;
33206;SDS011;19565;46.602;11.534;2023-01-28T09:24:45;20.13;;;19.23;;
33206;SDS011;19565;46.602;11.534;2023-01-28T09:27:13;21.10;;;20.10;;
33206;SDS011;19565;46.602;11.534;2023-01-28T09:29:43;18.80;;;17.90;;
33206;SDS011;19565;46.602;11.534;2023-01-28T09:32:11;18.53;;;17.60;;
33206;SDS011;19565;46.602;11.534;2023-01-28T09:34:39;21.67;;;20.57;;
33206;SDS011;19565;46.602;11.534;2023-01-28T09:37:07;38.83;;;37.13;;
33206;SDS011;19565;46.602;11.534;2023-01-28T09:39:36;38.60;;;36.90;;
33206;SDS011;19565;46.602;11.534;2023-01-28T09:42:13;38.90;;;37.20;;
33206;SDS011;19565;46.602;11.534;2023-01-28T09:44:58;39.07;;;37.27;;
33206;SDS011;19565;46.602;11.534;2023-01-28T09:47:29;38.20;;;36.50;;
33206;SDS011;19565;46.602;11.534;2023-01-28T09:50:02;36.53;;;34.93;;
33206;SDS011;19565;46.602;11.534;2023-01-28T09:52:36;37.67;;;36.07;;
33206;SDS011;19565;46.602;11.534;2023-01-28T09:55:11;41.10;;;39.30;;
33206;SDS011;19565;46.602;11.534;2023-01-28T09:57:45;39.30;;;37.60;;
33206;SDS011;19565;46.602;11.534;2023-01-28T10:00:20;38.77;;;37.07;;
33206;SDS011;19565;46.602;11.534;2023-01-28T10:03:06;39.97;;;38.17;;
33206;SDS011;19565;46.602;11.534;2023-01-28T10:05:55;38.97;;;37.27;;
33206;SDS011;19565;46.602;11.534;2023-01-28T10:08:40;38.50;;;36.83;;
33206;SDS011;19565;46.602;11.534;2023-01-28T10:11:28;38.47;;;36.77;;
33206;SDS011;19565;46.602;11.534;2023-01-28T10:14:11;16.90;;;16.10;;
33206;SDS011;19565;46.602;11.534;2023-01-28T10:16:49;38.10;;;36.43;;
33206;SDS011;19565;46.602;11.534;2023-01-28T10:19:22;37.60;;;36.00;;
33206;SDS011;19565;46.602;11.534;2023-01-28T10:21:54;36.97;;;35.37;;
33206;SDS011;19565;46.602;11.534;2023-01-28T10:24:28;37.80;;;36.20;;
33206;SDS011;19565;46.602;11.534;2023-01-28T10:27:00;37.13;;;35.53;;
33206;SDS011;19565;46.602;11.534;2023-01-28T10:29:30;38.47;;;36.77;;
33206;SDS011;19565;46.602;11.534;2023-01-28T10:32:03;37.47;;;35.87;;
33206;SDS011;19565;46.602;11.534;2023-01-28T10:34:49;38.70;;;37.00;;
33206;SDS011;19565;46.602;11.534;2023-01-28T10:37:19;38.47;;;36.77;;
33206;SDS011;19565;46.602;11.534;2023-01-28T10:39:48;36.20;;;34.60;;
33206;SDS011;19565;46.602;11.534;2023-01-28T10:42:20;38.20;;;36.57;;
33206;SDS011;19565;46.602;11.534;2023-01-28T10:44:55;38.80;;;37.10;;
33206;SDS011;19565;46.602;11.534;2023-01-28T10:47:28;35.90;;;34.40;;
33206;SDS011;19565;46.602;11.534;2023-01-28T10:49:59;39.60;;;37.90;;
33206;SDS011;19565;46.602;11.534;2023-01-28T10:52:29;38.30;;;36.60;;
33206;SDS011;19565;46.602;11.534;2023-01-28T10:55:00;39.23;;;37.53;;
33206;SDS011;19565;46.602;11.534;2023-01-28T10:57:31;39.53;;;37.77;;
33206;SDS011;19565;46.602;11.534;2023-01-28T11:00:08;40.57;;;38.77;;
33206;SDS011;19565;46.602;11.534;2023-01-28T11:02:40;40.20;;;38.40;;
33206;SDS011;19565;46.602;11.534;2023-01-28T11:05:14;39.47;;;37.67;;
33206;SDS011;19565;46.602;11.534;2023-01-28T11:07:44;43.77;;;40.00;;
33206;SDS011;19565;46.602;11.534;2023-01-28T11:10:26;39.80;;;38.10;;
33206;SDS011;19565;46.602;11.534;2023-01-28T11:12:59;39.87;;;38.17;;
33206;SDS011;19565;46.602;11.534;2023-01-28T11:15:29;38.20;;;36.60;;
33206;SDS011;19565;46.602;11.534;2023-01-28T11:18:00;37.60;;;36.00;;
33206;SDS011;19565;46.602;11.534;2023-01-28T11:20:33;37.00;;;35.40;;
33206;SDS011;19565;46.602;11.534;2023-01-28T11:23:04;37.70;;;35.57;;
33206;SDS011;19565;46.602;11.534;2023-01-28T11:25:33;36.47;;;34.87;;
33206;SDS011;19565;46.602;11.534;2023-01-28T11:28:03;39.47;;;37.77;;
33206;SDS011;19565;46.602;11.534;2023-01-28T11:30:35;39.80;;;38.10;;
33206;SDS011;19565;46.602;11.534;2023-01-28T11:33:13;38.57;;;36.87;;
33206;SDS011;19565;46.602;11.534;2023-01-28T11:35:51;43.17;;;41.30;;
33206;SDS011;19565;46.602;11.534;2023-01-28T11:38:20;39.07;;;37.37;;
33206;SDS011;19565;46.602;11.534;2023-01-28T11:40:50;38.77;;;37.07;;
33206;SDS011;19565;46.602;11.534;2023-01-28T11:43:19;37.80;;;36.13;;
33206;SDS011;19565;46.602;11.534;2023-01-28T11:45:51;18.83;;;17.93;;
33206;SDS011;19565;46.602;11.534;2023-01-28T11:48:33;21.40;;;20.40;;
33206;SDS011;19565;46.602;11.534;2023-01-28T11:51:16;21.90;;;20.77;;
33206;SDS011;19565;46.602;11.534;2023-01-28T11:54:00;17.60;;;16.80;;
33206;SDS011;19565;46.602;11.534;2023-01-28T11:56:43;24.47;;;23.37;;
33206;SDS011;19565;46.602;11.534;2023-01-28T12:02:31;18.30;;;17.40;;
33206;SDS011;19565;46.602;11.534;2023-01-28T12:05:26;18.03;;;17.13;;
33206;SDS011;19565;46.602;11.534;2023-01-28T12:08:06;18.63;;;17.73;;
33206;SDS011;19565;46.602;11.534;2023-01-28T12:10:41;18.80;;;17.90;;
33206;SDS011;19565;46.602;11.534;2023-01-28T12:13:26;18.20;;;17.30;;
33206;SDS011;19565;46.602;11.534;2023-01-28T12:16:14;19.60;;;18.60;;
33206;SDS011;19565;46.602;11.534;2023-01-28T12:21:58;18.43;;;17.53;;
33206;SDS011;19565;46.602;11.534;2023-01-28T12:24:39;18.30;;;17.40;;
33206;SDS011;19565;46.602;11.534;2023-01-28T12:27:23;19.57;;;18.67;;
33206;SDS011;19565;46.602;11.534;2023-01-28T12:30:01;13.57;;;12.87;;
33206;SDS011;19565;46.602;11.534;2023-01-28T12:32:39;18.03;;;17.17;;
33206;SDS011;19565;46.602;11.534;2023-01-28T12:38:20;18.43;;;17.53;;
33206;SDS011;19565;46.602;11.534;2023-01-28T12:40:56;17.50;;;16.70;;
33206;SDS011;19565;46.602;11.534;2023-01-28T12:43:39;18.03;;;17.13;;
33206;SDS011;19565;46.602;11.534;2023-01-28T12:46:16;17.10;;;16.30;;
33206;SDS011;19565;46.602;11.534;2023-01-28T12:48:52;16.90;;;16.10;;
33206;SDS011;19565;46.602;11.534;2023-01-28T12:51:26;17.50;;;16.70;;
33206;SDS011;19565;46.602;11.534;2023-01-28T12:54:01;16.67;;;15.87;;
33206;SDS011;19565;46.602;11.534;2023-01-28T12:56:34;18.47;;;17.57;;
33206;SDS011;19565;46.602;11.534;2023-01-28T12:59:09;17.30;;;16.50;;
33206;SDS011;19565;46.602;11.534;2023-01-28T13:01:43;16.50;;;15.70;;
33206;SDS011;19565;46.602;11.534;2023-01-28T13:04:16;22.17;;;21.17;;
33206;SDS011;19565;46.602;11.534;2023-01-28T13:06:52;19.50;;;18.50;;
33206;SDS011;19565;46.602;11.534;2023-01-28T13:09:25;17.93;;;17.03;;
33206;SDS011;19565;46.602;11.534;2023-01-28T13:11:55;18.53;;;17.63;;
33206;SDS011;19565;46.602;11.534;2023-01-28T13:14:27;17.90;;;17.10;;
33206;SDS011;19565;46.602;11.534;2023-01-28T13:17:07;18.50;;;17.60;;
33206;SDS011;19565;46.602;11.534;2023-01-28T13:19:37;17.37;;;16.57;;
33206;SDS011;19565;46.602;11.534;2023-01-28T13:22:09;17.83;;;16.97;;
33206;SDS011;19565;46.602;11.534;2023-01-28T13:24:44;18.83;;;17.93;;
33206;SDS011;19565;46.602;11.534;2023-01-28T13:27:12;18.43;;;17.53;;
33206;SDS011;19565;46.602;11.534;2023-01-28T13:29:59;19.83;;;18.93;;
33206;SDS011;19565;46.602;11.534;2023-01-28T13:32:32;18.53;;;17.63;;
33206;SDS011;19565;46.602;11.534;2023-01-28T13:35:03;18.10;;;17.20;;
33206;SDS011;19565;46.602;11.534;2023-01-28T13:37:33;18.60;;;17.63;;
33206;SDS011;19565;46.602;11.534;2023-01-28T13:40:20;18.27;;;17.37;;
33206;SDS011;19565;46.602;11.534;2023-01-28T13:42:57;17.33;;;16.53;;
33206;SDS011;19565;46.602;11.534;2023-01-28T13:45:26;18.53;;;17.60;;
33206;SDS011;19565;46.602;11.534;2023-01-28T13:47:56;19.00;;;18.10;;
33206;SDS011;19565;46.602;11.534;2023-01-28T13:50:32;19.20;;;18.20;;
33206;SDS011;19565;46.602;11.534;2023-01-28T13:53:12;17.77;;;16.97;;
33206;SDS011;19565;46.602;11.534;2023-01-28T13:55:47;18.97;;;18.07;;
33206;SDS011;19565;46.602;11.534;2023-01-28T13:58:33;18.67;;;17.77;;
33206;SDS011;19565;46.602;11.534;2023-01-28T14:01:31;19.70;;;18.80;;
33206;SDS011;19565;46.602;11.534;2023-01-28T14:07:17;18.03;;;17.17;;
33206;SDS011;19565;46.602;11.534;2023-01-28T14:10:07;18.60;;;17.70;;
33206;SDS011;19565;46.602;11.534;2023-01-28T14:12:55;16.50;;;15.70;;
33206;SDS011;19565;46.602;11.534;2023-01-28T14:15:48;18.20;;;17.30;;
33206;SDS011;19565;46.602;11.534;2023-01-28T14:18:25;18.20;;;17.30;;
33206;SDS011;19565;46.602;11.534;2023-01-28T14:20:57;19.53;;;18.57;;
33206;SDS011;19565;46.602;11.534;2023-01-28T14:23:28;18.53;;;17.63;;
33206;SDS011;19565;46.602;11.534;2023-01-28T14:26:02;18.63;;;17.73;;
33206;SDS011;19565;46.602;11.534;2023-01-28T14:28:45;17.83;;;16.93;;
33206;SDS011;19565;46.602;11.534;2023-01-28T14:31:20;16.57;;;15.77;;
33206;SDS011;19565;46.602;11.534;2023-01-28T14:33:53;18.93;;;18.03;;
33206;SDS011;19565;46.602;11.534;2023-01-28T14:36:25;18.40;;;17.50;;
33206;SDS011;19565;46.602;11.534;2023-01-28T14:38:54;18.50;;;17.60;;
33206;SDS011;19565;46.602;11.534;2023-01-28T14:41:24;17.93;;;17.03;;
33206;SDS011;19565;46.602;11.534;2023-01-28T14:43:55;21.63;;;19.30;;
33206;SDS011;19565;46.602;11.534;2023-01-28T14:46:28;17.80;;;16.93;;
33206;SDS011;19565;46.602;11.534;2023-01-28T14:49:11;18.37;;;17.47;;
33206;SDS011;19565;46.602;11.534;2023-01-28T14:51:57;17.60;;;16.77;;
33206;SDS011;19565;46.602;11.534;2023-01-28T14:54:42;18.40;;;17.50;;
33206;SDS011;19565;46.602;11.534;2023-01-28T14:57:31;18.30;;;17.40;;
33206;SDS011;19565;46.602;11.534;2023-01-28T15:00:17;18.40;;;17.50;;
33206;SDS011;19565;46.602;11.534;2023-01-28T15:02:47;16.80;;;16.00;;